Terminal Aerodrome Forecast
Issued by NWS Sioux Falls, SD

Home | Current Version | Previous Version | Graphics & Text | Print | Product List | Glossary On
Versions: 1 2 3 4 5 6 7 8 9 10 11 12 13 14 15 16 17 18 19
000
FTUS43 KFSD 281301 AAA
TAFSUX
TAF AMD
KSUX 281301Z 2813/2912 29012G18KT P6SM SKC
     FM281400 29016G26KT P6SM SCT035
     FM282100 30014G22KT P6SM SCT045
     FM290000 29008KT P6SM SKC=

USA.gov is the U.S. government's official web portal to all federal, state and local government web resources and services.